createdAt,value
2022-11-22T00:01:09.617Z,19.90
2022-11-22T00:03:36.486Z,19.90
2022-11-22T00:06:03.135Z,19.80
2022-11-22T00:08:29.719Z,19.80
2022-11-22T00:10:56.283Z,19.80
2022-11-22T00:13:22.798Z,19.80
2022-11-22T00:15:59.372Z,19.90
2022-11-22T00:18:25.921Z,19.80
2022-11-22T00:20:52.439Z,19.80
2022-11-22T00:23:19.054Z,19.80
2022-11-22T00:25:45.740Z,19.80
2022-11-22T00:28:12.308Z,19.90
2022-11-22T00:30:38.860Z,19.80
2022-11-22T00:33:05.491Z,19.80
2022-11-22T00:35:32.017Z,19.80
2022-11-22T00:37:58.558Z,19.80
2022-11-22T00:40:25.139Z,19.80
2022-11-22T00:42:51.709Z,19.90
2022-11-22T00:45:18.253Z,19.80
2022-11-22T00:47:44.768Z,19.80
2022-11-22T00:50:11.451Z,19.80
2022-11-22T00:52:37.984Z,20.10
2022-11-22T00:55:04.696Z,19.80
2022-11-22T00:57:31.204Z,19.80
2022-11-22T00:59:57.774Z,19.80
2022-11-22T01:02:24.268Z,19.80
2022-11-22T01:04:50.824Z,20.00
2022-11-22T01:07:17.402Z,19.90
2022-11-22T01:09:44.075Z,19.80
2022-11-22T01:12:10.666Z,19.80
2022-11-22T01:14:37.221Z,19.90
2022-11-22T01:17:03.759Z,19.90
2022-11-22T01:19:30.823Z,19.80
2022-11-22T01:21:57.645Z,19.80
2022-11-22T01:24:24.208Z,19.80
2022-11-22T01:26:50.836Z,19.80
2022-11-22T01:29:17.485Z,19.80
2022-11-22T01:31:44.206Z,19.90
2022-11-22T01:34:11.047Z,19.80
2022-11-22T01:36:37.607Z,19.80
2022-11-22T01:39:04.474Z,19.80
2022-11-22T01:41:31.157Z,19.80
2022-11-22T01:43:57.714Z,19.90
2022-11-22T01:46:32.473Z,20.00
2022-11-22T01:49:08.991Z,19.80
2022-11-22T01:51:38.411Z,19.90
2022-11-22T01:54:07.819Z,19.90
2022-11-22T01:56:35.572Z,19.90
2022-11-22T01:59:04.209Z,19.90
2022-11-22T02:01:31.765Z,19.80
2022-11-22T02:03:59.970Z,19.90
2022-11-22T02:06:32.536Z,19.90
2022-11-22T02:09:05.543Z,19.80
2022-11-22T02:11:34.297Z,19.90
2022-11-22T02:14:02.110Z,20.00
2022-11-22T02:16:28.704Z,19.90
2022-11-22T02:18:55.261Z,19.90
2022-11-22T02:21:22.193Z,19.90
2022-11-22T02:23:54.320Z,19.90
2022-11-22T02:26:20.900Z,19.90
2022-11-22T02:28:47.529Z,19.90
2022-11-22T02:31:33.593Z,19.90
2022-11-22T02:34:01.797Z,19.90
2022-11-22T02:36:30.146Z,19.90
2022-11-22T02:38:56.814Z,20.00
2022-11-22T02:41:23.394Z,19.90
2022-11-22T02:43:50.083Z,19.90
2022-11-22T02:46:20.631Z,19.90
2022-11-22T02:48:47.748Z,19.90
2022-11-22T02:51:19.501Z,19.90
2022-11-22T02:53:46.867Z,19.90
2022-11-22T02:56:13.781Z,19.90
2022-11-22T02:58:40.301Z,19.90
2022-11-22T03:01:06.918Z,20.00
2022-11-22T03:03:33.624Z,20.00
2022-11-22T03:06:02.281Z,19.90
2022-11-22T03:08:28.859Z,19.90
2022-11-22T03:10:57.174Z,19.90
2022-11-22T03:13:23.741Z,19.90
2022-11-22T03:15:50.274Z,19.90
2022-11-22T03:18:16.811Z,19.90
2022-11-22T03:20:43.363Z,19.90
2022-11-22T03:23:09.919Z,19.90
2022-11-22T03:25:37.181Z,19.90
2022-11-22T03:28:03.760Z,19.90
2022-11-22T03:30:30.265Z,19.90
2022-11-22T03:32:56.813Z,19.90
2022-11-22T03:35:23.328Z,19.90
2022-11-22T03:37:49.947Z,19.90
2022-11-22T03:40:16.624Z,19.90
2022-11-22T03:42:43.186Z,19.90
2022-11-22T03:45:09.921Z,19.90
2022-11-22T03:47:36.496Z,19.90
2022-11-22T03:50:03.188Z,19.90
2022-11-22T03:52:29.804Z,19.90
2022-11-22T03:54:56.404Z,19.90
2022-11-22T03:57:22.973Z,19.90
2022-11-22T03:59:49.568Z,19.90
2022-11-22T04:02:17.021Z,19.90
2022-11-22T04:04:43.542Z,19.90
2022-11-22T04:07:10.117Z,19.90
2022-11-22T04:09:36.774Z,19.90
2022-11-22T04:12:03.521Z,19.90
2022-11-22T04:14:48.727Z,19.90
2022-11-22T04:17:35.260Z,19.90
2022-11-22T04:20:21.765Z,19.90
2022-11-22T04:22:57.583Z,19.90
2022-11-22T04:25:24.989Z,19.90
2022-11-22T04:27:51.513Z,20.00
2022-11-22T04:30:20.649Z,19.90
2022-11-22T04:32:47.661Z,19.90
2022-11-22T04:35:15.273Z,19.90
2022-11-22T04:37:42.422Z,20.10
2022-11-22T04:40:09.835Z,20.00
2022-11-22T04:42:54.783Z,19.90
2022-11-22T04:45:21.419Z,19.90
2022-11-22T04:47:59.801Z,19.90
2022-11-22T04:50:48.645Z,19.90
2022-11-22T04:53:15.676Z,20.00
2022-11-22T04:55:43.654Z,19.90
2022-11-22T04:58:10.542Z,19.90
2022-11-22T05:00:37.181Z,19.90
2022-11-22T05:03:03.775Z,19.90
2022-11-22T05:05:30.616Z,19.90
2022-11-22T05:08:00.080Z,19.90
2022-11-22T05:10:27.334Z,19.90
2022-11-22T05:12:54.371Z,19.90
2022-11-22T05:15:20.932Z,20.00
2022-11-22T05:17:47.445Z,19.90
2022-11-22T05:20:14.169Z,20.00
2022-11-22T05:22:59.218Z,19.90
2022-11-22T05:25:25.986Z,19.90
2022-11-22T05:27:53.042Z,20.00
2022-11-22T05:30:19.537Z,19.90
2022-11-22T05:32:46.059Z,19.10
2022-11-22T05:35:12.570Z,17.60
2022-11-22T05:37:39.077Z,16.80
2022-11-22T05:40:05.974Z,16.30
2022-11-22T05:42:32.576Z,16.20
2022-11-22T05:44:59.130Z,16.00
2022-11-22T05:47:25.728Z,15.80
2022-11-22T05:49:52.336Z,15.50
2022-11-22T05:52:18.901Z,15.40
2022-11-22T05:54:45.462Z,15.30
2022-11-22T05:57:11.971Z,15.10
2022-11-22T05:59:43.892Z,15.30
2022-11-22T06:02:11.090Z,16.20
2022-11-22T06:04:37.722Z,17.10
2022-11-22T06:07:09.671Z,17.60
2022-11-22T06:09:36.786Z,17.90
2022-11-22T06:12:03.895Z,18.10
2022-11-22T06:14:30.535Z,18.20
2022-11-22T06:16:57.229Z,18.30
2022-11-22T06:19:23.821Z,18.40
2022-11-22T06:21:50.454Z,18.50
2022-11-22T06:24:17.083Z,18.70
2022-11-22T06:26:43.840Z,18.60
2022-11-22T06:29:10.691Z,18.60
2022-11-22T06:31:37.361Z,18.70
2022-11-22T06:34:04.020Z,18.70
2022-11-22T06:36:33.322Z,18.80
2022-11-22T06:39:01.958Z,18.80
2022-11-22T06:41:32.126Z,18.80
2022-11-22T06:43:58.717Z,18.90
2022-11-22T06:46:26.989Z,18.90
2022-11-22T06:48:53.774Z,18.90
2022-11-22T06:51:23.011Z,19.00
2022-11-22T06:53:50.769Z,19.00
2022-11-22T06:56:18.919Z,19.00
2022-11-22T06:58:46.592Z,19.00
2022-11-22T07:01:19.505Z,19.00
2022-11-22T07:03:47.715Z,19.00
2022-11-22T07:06:15.995Z,19.10
2022-11-22T07:08:43.491Z,19.10
2022-11-22T07:11:18.686Z,19.10
2022-11-22T07:13:47.010Z,19.10
2022-11-22T07:16:16.605Z,19.30
2022-11-22T07:18:44.046Z,19.20
2022-11-22T07:21:19.593Z,19.20
2022-11-22T07:23:48.260Z,19.20
2022-11-22T07:26:16.898Z,19.30
2022-11-22T07:28:44.256Z,19.20
2022-11-22T07:31:13.360Z,19.30
2022-11-22T07:33:40.246Z,19.30
2022-11-22T07:36:18.834Z,19.30
2022-11-22T07:38:46.096Z,19.30
2022-11-22T07:41:13.434Z,19.30
2022-11-22T07:43:41.756Z,19.40
2022-11-22T07:46:16.122Z,19.30
2022-11-22T07:48:42.720Z,19.40
2022-11-22T07:51:09.394Z,19.30
2022-11-22T07:53:36.094Z,19.30
2022-11-22T07:56:04.447Z,19.40
2022-11-22T07:58:31.619Z,19.30
2022-11-22T08:00:58.299Z,19.30
2022-11-22T08:03:28.920Z,19.40
2022-11-22T08:06:00.601Z,19.30
2022-11-22T08:08:27.625Z,19.60
2022-11-22T08:10:54.653Z,19.40
2022-11-22T08:13:22.080Z,19.50
2022-11-22T08:15:49.649Z,19.40
2022-11-22T08:18:16.506Z,19.40
2022-11-22T08:20:43.460Z,19.40
2022-11-22T08:23:10.200Z,19.40
2022-11-22T08:25:36.852Z,19.40
2022-11-22T08:28:03.594Z,19.60
2022-11-22T08:30:30.241Z,19.40
2022-11-22T08:32:57.118Z,19.40
2022-11-22T08:35:23.930Z,19.50
2022-11-22T08:37:54.167Z,19.40
2022-11-22T08:40:20.806Z,19.70
2022-11-22T08:42:47.510Z,19.40
2022-11-22T08:45:16.621Z,19.50
2022-11-22T08:47:43.189Z,19.50
2022-11-22T08:50:11.004Z,19.50
2022-11-22T08:52:37.662Z,19.60
2022-11-22T08:55:04.578Z,19.60
2022-11-22T08:57:31.316Z,19.50
2022-11-22T08:59:57.958Z,19.50
2022-11-22T09:02:24.599Z,19.50
2022-11-22T09:04:51.233Z,19.60
2022-11-22T09:10:08.118Z,19.50
2022-11-22T09:12:34.841Z,19.50
2022-11-22T09:15:01.425Z,19.60
2022-11-22T09:17:28.086Z,19.60
2022-11-22T09:19:54.778Z,19.50
2022-11-22T09:22:24.069Z,19.70
2022-11-22T09:24:54.797Z,19.50
2022-11-22T09:27:21.452Z,19.60
2022-11-22T09:29:48.271Z,19.60
2022-11-22T09:32:15.041Z,19.60
2022-11-22T09:34:41.963Z,19.60
2022-11-22T09:37:08.641Z,19.60
2022-11-22T09:39:35.407Z,19.60
2022-11-22T09:42:36.381Z,19.60
2022-11-22T09:45:33.756Z,19.60
2022-11-22T09:48:10.045Z,19.60
2022-11-22T09:51:06.102Z,19.60
2022-11-22T09:53:40.486Z,19.40
2022-11-22T09:56:14.561Z,19.60
2022-11-22T09:58:52.297Z,19.60
2022-11-22T10:01:53.387Z,19.60
2022-11-22T10:04:22.354Z,19.50
2022-11-22T10:07:17.888Z,19.50
2022-11-22T10:10:02.788Z,19.50
2022-11-22T10:12:32.331Z,19.50
2022-11-22T10:15:30.233Z,19.50
2022-11-22T10:18:01.637Z,19.50
2022-11-22T10:20:30.893Z,19.60
2022-11-22T10:22:58.429Z,19.50
2022-11-22T10:25:38.637Z,19.60
2022-11-22T10:28:25.792Z,19.60
2022-11-22T10:31:11.814Z,19.60
2022-11-22T10:34:10.531Z,19.50
2022-11-22T10:36:42.993Z,19.50
2022-11-22T10:39:34.087Z,19.60
2022-11-22T10:42:09.967Z,19.50
2022-11-22T10:44:49.945Z,19.60
2022-11-22T10:47:53.339Z,19.50
2022-11-22T10:50:30.613Z,19.50
2022-11-22T10:53:10.678Z,19.60
2022-11-22T10:55:58.908Z,19.60
2022-11-22T10:58:50.037Z,19.50
2022-11-22T11:01:33.001Z,19.60
2022-11-22T11:04:02.319Z,19.60
2022-11-22T11:07:04.880Z,19.70
2022-11-22T11:12:45.244Z,19.60
2022-11-22T11:15:31.462Z,19.60
2022-11-22T11:18:29.777Z,19.60
2022-11-22T11:20:56.598Z,19.60
2022-11-22T11:23:24.135Z,19.60
2022-11-22T11:25:52.435Z,19.60
2022-11-22T11:28:29.969Z,19.70
2022-11-22T11:30:58.490Z,19.60
2022-11-22T11:33:28.623Z,19.60
2022-11-22T11:36:18.958Z,19.60
2022-11-22T11:38:45.545Z,19.60
2022-11-22T11:41:25.499Z,19.60
2022-11-22T11:43:54.373Z,19.60
2022-11-22T11:46:26.453Z,19.60
2022-11-22T11:49:08.813Z,19.60
2022-11-22T11:51:41.118Z,19.60
2022-11-22T11:54:20.986Z,19.60
2022-11-22T11:56:57.692Z,19.60
2022-11-22T11:59:32.660Z,19.60
2022-11-22T12:02:03.766Z,19.60
2022-11-22T12:04:35.047Z,19.70
2022-11-22T12:07:25.205Z,19.70
2022-11-22T12:09:53.690Z,19.60
2022-11-22T12:12:44.642Z,19.70
2022-11-22T12:15:47.302Z,19.60
2022-11-22T12:18:32.779Z,19.70
2022-11-22T12:21:23.509Z,19.70
2022-11-22T12:26:45.582Z,19.70
2022-11-22T12:29:14.417Z,19.60
2022-11-22T12:31:52.878Z,19.70
2022-11-22T12:34:45.038Z,19.60
2022-11-22T12:37:25.524Z,19.70
2022-11-22T12:39:55.991Z,19.70
2022-11-22T12:42:31.787Z,19.60
2022-11-22T12:45:04.706Z,19.60
2022-11-22T12:47:38.899Z,19.70
2022-11-22T12:48:23.748Z,19.60
2022-11-22T12:50:25.034Z,19.80
2022-11-22T12:53:03.285Z,19.70
2022-11-22T12:55:45.802Z,19.60
2022-11-22T12:58:12.353Z,19.70
2022-11-22T13:00:54.204Z,19.70
2022-11-22T13:03:42.224Z,19.70
2022-11-22T13:06:10.713Z,19.70
2022-11-22T13:08:56.616Z,19.70
2022-11-22T13:11:34.067Z,19.70
2022-11-22T13:14:20.982Z,19.70
2022-11-22T13:16:57.131Z,19.70
2022-11-22T13:19:27.079Z,19.80
2022-11-22T13:22:45.834Z,19.70
2022-11-22T13:25:39.474Z,19.70
2022-11-22T13:28:16.727Z,19.70
2022-11-22T13:31:11.699Z,19.70
2022-11-22T13:33:41.409Z,19.70
2022-11-22T13:36:26.951Z,19.80
2022-11-22T13:38:56.695Z,19.70
2022-11-22T13:41:26.592Z,19.70
2022-11-22T13:43:57.991Z,19.70
2022-11-22T13:46:51.849Z,19.70
2022-11-22T13:49:48.297Z,19.80
2022-11-22T13:52:15.418Z,19.70
2022-11-22T13:54:48.194Z,19.70
2022-11-22T13:57:28.964Z,19.70
2022-11-22T14:00:14.199Z,19.80
2022-11-22T14:03:11.304Z,19.70
2022-11-22T14:05:41.974Z,19.70
2022-11-22T14:08:26.502Z,19.70
2022-11-22T14:10:53.069Z,19.70
2022-11-22T14:13:52.309Z,19.70
2022-11-22T14:16:42.863Z,19.70
2022-11-22T14:19:34.092Z,19.70
2022-11-22T14:22:22.604Z,19.70
2022-11-22T14:25:15.193Z,19.70
2022-11-22T14:27:50.890Z,19.70
2022-11-22T14:30:38.730Z,19.70
2022-11-22T14:33:14.466Z,19.70
2022-11-22T14:36:06.737Z,19.70
2022-11-22T14:38:40.221Z,19.70
2022-11-22T14:41:30.354Z,19.70
2022-11-22T14:44:25.285Z,19.80
2022-11-22T14:47:04.415Z,19.70
2022-11-22T14:49:48.861Z,19.70
2022-11-22T14:52:22.923Z,19.70
2022-11-22T14:54:56.902Z,19.70
2022-11-22T14:57:26.633Z,19.70
2022-11-22T15:00:09.070Z,19.70
2022-11-22T15:02:57.034Z,19.70
2022-11-22T15:09:11.060Z,19.70
2022-11-22T15:09:17.241Z,19.70
2022-11-22T15:11:43.454Z,19.70
2022-11-22T15:14:13.036Z,19.70
2022-11-22T15:57:26.624Z,19.70
2022-11-22T15:59:54.420Z,19.70
2022-11-22T16:02:25.174Z,19.70
2022-11-22T16:06:08.663Z,19.70
2022-11-22T16:07:50.397Z,19.60
2022-11-22T16:10:23.384Z,19.70
2022-11-22T16:12:51.770Z,19.70
2022-11-22T16:15:37.023Z,19.70
2022-11-22T16:18:10.989Z,19.70
2022-11-22T16:20:39.440Z,19.70
2022-11-22T16:23:09.142Z,19.70
2022-11-22T16:25:41.796Z,19.70
2022-11-22T16:28:30.278Z,19.60
2022-11-22T16:31:03.152Z,19.70
2022-11-22T16:33:30.493Z,19.70
2022-11-22T16:36:01.084Z,17.90
2022-11-22T16:38:28.608Z,17.80
2022-11-22T16:40:57.457Z,17.90
2022-11-22T16:43:26.200Z,17.50
2022-11-22T16:45:53.220Z,17.00
2022-11-22T16:48:32.215Z,17.80
2022-11-22T16:51:06.180Z,18.30
2022-11-22T16:53:45.013Z,18.80
2022-11-22T16:56:23.860Z,19.00
2022-11-22T16:58:52.081Z,19.10
2022-11-22T17:01:27.264Z,19.20
2022-11-22T17:03:56.808Z,19.40
2022-11-22T17:06:26.054Z,19.40
2022-11-22T17:08:55.353Z,19.40
2022-11-22T17:11:25.468Z,19.40
2022-11-22T17:13:52.524Z,19.50
2022-11-22T17:16:19.531Z,19.50
2022-11-22T17:18:47.480Z,19.50
2022-11-22T17:21:21.107Z,19.60
2022-11-22T17:23:48.496Z,19.60
2022-11-22T17:26:15.462Z,19.60
2022-11-22T17:28:42.127Z,19.70
2022-11-22T17:31:17.452Z,19.70
2022-11-22T17:33:44.324Z,19.70
2022-11-22T17:36:27.846Z,19.80
2022-11-22T17:38:54.718Z,19.80
2022-11-22T17:41:21.682Z,19.80
2022-11-22T17:43:48.576Z,19.80
2022-11-22T17:46:15.285Z,19.80
2022-11-22T17:48:41.911Z,19.80
2022-11-22T17:51:12.235Z,19.80
2022-11-22T17:53:39.486Z,19.80
2022-11-22T17:56:11.155Z,19.90
2022-11-22T17:58:38.453Z,19.90
2022-11-22T18:01:16.795Z,19.90
2022-11-22T18:03:44.141Z,19.90
2022-11-22T18:06:11.722Z,19.90
2022-11-22T18:08:42.437Z,19.90
2022-11-22T18:11:12.020Z,20.00
2022-11-22T18:13:39.935Z,20.00
2022-11-22T18:16:09.099Z,20.00
2022-11-22T18:21:25.624Z,19.90
2022-11-22T18:23:52.391Z,19.90
2022-11-22T18:31:53.414Z,20.00
2022-11-22T18:34:21.295Z,20.00
2022-11-22T18:37:00.251Z,20.00
2022-11-22T18:39:28.719Z,20.00
2022-11-22T18:41:55.574Z,20.00
2022-11-22T18:44:22.314Z,20.10
2022-11-22T18:46:48.995Z,19.90
2022-11-22T18:49:15.780Z,20.00
2022-11-22T18:51:42.412Z,19.90
2022-11-22T18:54:12.671Z,19.80
2022-11-22T18:56:40.204Z,19.80
2022-11-22T18:59:09.905Z,19.80
2022-11-22T19:01:37.245Z,19.80
2022-11-22T19:04:04.667Z,19.80
2022-11-22T19:06:31.474Z,19.80
2022-11-22T19:08:58.189Z,19.80
2022-11-22T19:11:25.553Z,19.80
2022-11-22T19:13:52.361Z,19.90
2022-11-22T19:16:22.489Z,20.00
2022-11-22T19:18:50.002Z,20.00
2022-11-22T19:21:19.432Z,19.90
2022-11-22T19:23:46.882Z,19.90
2022-11-22T19:26:16.345Z,19.90
2022-11-22T19:28:43.117Z,19.80
2022-11-22T19:31:14.795Z,19.80
2022-11-22T19:33:41.848Z,19.80
2022-11-22T19:36:13.481Z,19.80
2022-11-22T19:38:41.614Z,19.90
2022-11-22T19:41:10.162Z,19.90
2022-11-22T19:43:37.595Z,19.80
2022-11-22T19:46:05.613Z,19.90
2022-11-22T19:48:32.824Z,19.80
2022-11-22T19:51:05.439Z,19.90
2022-11-22T19:53:32.217Z,19.90
2022-11-22T19:56:04.080Z,19.90
2022-11-22T19:58:31.143Z,19.90
2022-11-22T20:01:05.430Z,19.80
2022-11-22T20:03:36.385Z,19.90
2022-11-22T20:06:05.201Z,19.90
2022-11-22T20:08:32.742Z,19.90
2022-11-22T20:11:02.738Z,20.00
2022-11-22T20:13:30.196Z,19.90
2022-11-22T20:15:57.428Z,20.00
2022-11-22T20:18:24.058Z,20.10
2022-11-22T20:20:50.695Z,20.10
2022-11-22T20:23:17.358Z,20.10
2022-11-22T20:25:44.014Z,20.00
2022-11-22T20:28:10.662Z,20.00
2022-11-22T20:30:37.339Z,20.00
2022-11-22T20:33:03.983Z,20.00
2022-11-22T20:35:30.603Z,20.00
2022-11-22T20:37:57.335Z,19.90
2022-11-22T20:40:24.043Z,19.90
2022-11-22T20:42:50.676Z,19.70
2022-11-22T20:45:17.356Z,19.70
2022-11-22T20:47:44.003Z,19.80
2022-11-22T20:50:10.695Z,19.90
2022-11-22T20:52:37.303Z,19.90
2022-11-22T20:55:05.476Z,19.90
2022-11-22T20:57:32.359Z,20.00
2022-11-22T20:59:59.104Z,20.00
2022-11-22T21:02:25.745Z,20.00
2022-11-22T21:04:52.382Z,20.00
2022-11-22T21:07:19.041Z,20.10
2022-11-22T21:09:48.078Z,20.10
2022-11-22T21:12:14.773Z,20.10
2022-11-22T21:14:41.389Z,20.10
2022-11-22T21:17:37.244Z,20.20
2022-11-22T21:19:54.646Z,20.20
2022-11-22T21:22:21.242Z,20.10
2022-11-22T21:24:47.887Z,20.10
2022-11-22T21:27:14.482Z,20.00
2022-11-22T21:29:41.249Z,20.00
2022-11-22T21:32:07.914Z,20.10
2022-11-22T21:34:34.633Z,20.10
2022-11-22T21:37:01.320Z,20.20
2022-11-22T21:39:28.048Z,20.10
2022-11-22T21:41:54.769Z,20.10
2022-11-22T21:44:21.432Z,20.10
2022-11-22T21:46:48.107Z,20.10
2022-11-22T21:49:15.354Z,20.00
2022-11-22T21:51:42.047Z,20.10
2022-11-22T21:54:08.698Z,20.10
2022-11-22T21:56:35.880Z,20.10
2022-11-22T21:59:02.866Z,20.00
2022-11-22T22:01:30.052Z,20.00
2022-11-22T22:03:59.760Z,20.00
2022-11-22T22:06:26.564Z,19.90
2022-11-22T22:08:53.304Z,19.90
2022-11-22T22:11:21.859Z,19.90
2022-11-22T22:13:48.511Z,19.90
2022-11-22T22:16:19.414Z,19.80
2022-11-22T22:18:47.066Z,19.90
2022-11-22T22:21:14.317Z,19.80
2022-11-22T22:23:42.266Z,19.80
2022-11-22T22:26:11.696Z,19.90
2022-11-22T22:28:40.053Z,19.90
2022-11-22T22:31:09.638Z,19.80
2022-11-22T22:33:38.172Z,19.90
2022-11-22T22:36:06.566Z,19.90
2022-11-22T22:38:33.471Z,19.80
2022-11-22T22:41:02.048Z,19.80
2022-11-22T22:43:36.046Z,19.80
2022-11-22T22:46:11.261Z,19.90
2022-11-22T22:48:37.996Z,19.90
2022-11-22T22:51:15.423Z,19.90
2022-11-22T22:53:43.615Z,19.90
2022-11-22T22:56:11.227Z,19.90
2022-11-22T22:58:38.185Z,19.90
2022-11-22T23:01:05.773Z,19.90
2022-11-22T23:03:33.016Z,19.90
2022-11-22T23:06:03.616Z,19.90
2022-11-22T23:08:30.452Z,20.00
2022-11-22T23:11:12.159Z,20.00
2022-11-22T23:13:41.237Z,20.00
2022-11-22T23:16:10.839Z,20.00
2022-11-22T23:18:43.614Z,20.00
2022-11-22T23:21:32.771Z,20.00
2022-11-22T23:23:59.450Z,20.00
2022-11-22T23:26:26.122Z,20.00
2022-11-22T23:28:55.819Z,20.00
2022-11-22T23:31:22.496Z,20.00
2022-11-22T23:33:49.327Z,20.00
2022-11-22T23:36:18.375Z,20.00
2022-11-22T23:38:45.615Z,20.00
2022-11-22T23:41:14.047Z,20.10
2022-11-22T23:43:43.870Z,20.10
2022-11-22T23:46:17.800Z,20.10
2022-11-22T23:48:46.301Z,20.10
2022-11-22T23:51:13.817Z,20.10
2022-11-22T23:53:40.965Z,20.10
2022-11-22T23:56:09.944Z,20.10
2022-11-22T23:58:37.065Z,20.10
